RYR74YD LEPA-EDNY
Flight info
| Callsign | RYR74YD |
|---|---|
| Flight time | 1h 38m |
| Altitude | 30000 |
| Route | MEROS DCT LAPIT DCT CHELY DCT LUMAS DCT UNANA DCT STP DCT RAPED DCT PIGOS DCT EKSID DCT NOSTA DCT NOPMU DCT LAGEN DCT TAGIP DCT TISAX DCT UNIMI L12 MOGTI P66 KPT KPT1F |
| Aircraft | A320/M-SDE3FGHIRWY/LB1 |
Departure
| Time | 2026-05-07 15:50 |
|---|---|
| Airport | Palma de Mallorca Airport (LEPA) |
Arrival
| Time | 2026-05-07 17:28 |
|---|---|
| Airport | Bodensee Airport Friedrichshafen (EDNY) |
| Time | Latitude | Longitude | Altitude | Speed | Heading |
|---|---|---|---|---|---|
| 2026-05-07 15:01 | 39.55018 | 2.73490 | 39 ft | 0 kts | 165° |
| 2026-05-07 15:39 | 39.55033 | 2.73483 | 36 ft | 4 kts | 151° |
| 2026-05-07 15:39 | 39.55052 | 2.73462 | 37 ft | 4 kts | 109° |
| 2026-05-07 15:39 | 39.55053 | 2.73430 | 35 ft | 4 kts | 69° |
| 2026-05-07 15:39 | 39.55047 | 2.73413 | 37 ft | 0 kts | 59° |
| 2026-05-07 15:43 | 39.55057 | 2.73435 | 36 ft | 7 kts | 59° |
| 2026-05-07 15:43 | 39.55094 | 2.73516 | 37 ft | 12 kts | 59° |
| 2026-05-07 15:43 | 39.55140 | 2.73613 | 38 ft | 13 kts | 59° |
| 2026-05-07 15:43 | 39.55180 | 2.73715 | 38 ft | 10 kts | 91° |
| 2026-05-07 15:44 | 39.55174 | 2.73809 | 38 ft | 12 kts | 66° |
| 2026-05-07 15:44 | 39.55131 | 2.73885 | 38 ft | 12 kts | 148° |
| 2026-05-07 15:44 | 39.55054 | 2.73947 | 38 ft | 14 kts | 148° |
| 2026-05-07 15:44 | 39.54968 | 2.74015 | 38 ft | 15 kts | 149° |
| 2026-05-07 15:45 | 39.54874 | 2.74089 | 37 ft | 14 kts | 148° |
| 2026-05-07 15:45 | 39.54797 | 2.74118 | 38 ft | 13 kts | 200° |
| 2026-05-07 15:45 | 39.54738 | 2.74017 | 38 ft | 15 kts | 238° |
| 2026-05-07 15:45 | 39.54687 | 2.73911 | 38 ft | 13 kts | 239° |
| 2026-05-07 15:46 | 39.54578 | 2.73681 | 38 ft | 20 kts | 238° |
| 2026-05-07 15:46 | 39.54500 | 2.73517 | 38 ft | 22 kts | 238° |
| 2026-05-07 15:46 | 39.54425 | 2.73357 | 37 ft | 20 kts | 239° |
| 2026-05-07 15:47 | 39.54364 | 2.73230 | 38 ft | 15 kts | 239° |
| 2026-05-07 15:47 | 39.54312 | 2.73118 | 38 ft | 14 kts | 238° |
| 2026-05-07 15:47 | 39.54265 | 2.73019 | 38 ft | 12 kts | 238° |
| 2026-05-07 15:47 | 39.54222 | 2.72932 | 38 ft | 11 kts | 228° |
| 2026-05-07 15:48 | 39.54164 | 2.72935 | 37 ft | 9 kts | 130° |
| 2026-05-07 15:48 | 39.54150 | 2.73028 | 38 ft | 13 kts | 89° |
| 2026-05-07 15:48 | 39.54151 | 2.73152 | 38 ft | 13 kts | 89° |
| 2026-05-07 15:48 | 39.54167 | 2.73255 | 37 ft | 10 kts | 58° |
| 2026-05-07 15:49 | 39.54207 | 2.73339 | 38 ft | 21 kts | 59° |
| 2026-05-07 15:49 | 39.54421 | 2.73797 | 38 ft | 94 kts | 59° |
| 2026-05-07 15:49 | 39.54872 | 2.74747 | 40 ft | 150 kts | 58° |
| 2026-05-07 15:49 | 39.55454 | 2.75959 | 484 ft | 161 kts | 62° |
| 2026-05-07 15:50 | 39.56021 | 2.77218 | 1170 ft | 161 kts | 60° |
| 2026-05-07 15:50 | 39.56611 | 2.78519 | 1661 ft | 177 kts | 61° |
| 2026-05-07 15:50 | 39.57274 | 2.79984 | 1984 ft | 198 kts | 60° |
| 2026-05-07 15:50 | 39.57987 | 2.81550 | 2577 ft | 204 kts | 60° |
| 2026-05-07 15:51 | 39.58709 | 2.83136 | 3309 ft | 206 kts | 61° |
| 2026-05-07 15:51 | 39.59437 | 2.84738 | 3969 ft | 211 kts | 61° |
| 2026-05-07 15:51 | 39.60187 | 2.86385 | 4683 ft | 213 kts | 61° |
| 2026-05-07 15:51 | 39.60946 | 2.88048 | 5390 ft | 216 kts | 61° |
| 2026-05-07 15:52 | 39.61716 | 2.89734 | 6049 ft | 219 kts | 61° |
| 2026-05-07 15:52 | 39.62501 | 2.91468 | 6684 ft | 230 kts | 62° |
| 2026-05-07 15:52 | 39.63331 | 2.93365 | 7107 ft | 254 kts | 62° |
| 2026-05-07 15:52 | 39.64222 | 2.95433 | 7733 ft | 269 kts | 62° |
| 2026-05-07 15:53 | 39.65150 | 2.97584 | 8545 ft | 276 kts | 62° |
| 2026-05-07 15:53 | 39.66093 | 2.99764 | 9461 ft | 279 kts | 63° |
| 2026-05-07 15:53 | 39.67052 | 3.01984 | 10243 ft | 287 kts | 62° |
| 2026-05-07 15:53 | 39.68069 | 3.04341 | 10571 ft | 311 kts | 63° |
| 2026-05-07 15:54 | 39.69161 | 3.06883 | 10918 ft | 332 kts | 63° |
| 2026-05-07 15:54 | 39.70306 | 3.09539 | 11558 ft | 341 kts | 63° |
| 2026-05-07 15:54 | 39.71476 | 3.12245 | 12286 ft | 346 kts | 63° |
| 2026-05-07 15:54 | 39.72662 | 3.14982 | 13002 ft | 350 kts | 63° |
| 2026-05-07 15:55 | 39.73863 | 3.17758 | 13747 ft | 355 kts | 63° |
| 2026-05-07 15:55 | 39.75077 | 3.20573 | 14413 ft | 359 kts | 63° |
| 2026-05-07 15:55 | 39.76305 | 3.23425 | 15015 ft | 364 kts | 63° |
| 2026-05-07 15:55 | 39.77615 | 3.26263 | 15562 ft | 370 kts | 56° |
| 2026-05-07 15:56 | 39.79274 | 3.28863 | 16121 ft | 376 kts | 50° |
| 2026-05-07 15:56 | 39.81007 | 3.31439 | 16686 ft | 381 kts | 50° |
| 2026-05-07 15:56 | 39.82755 | 3.34049 | 17250 ft | 385 kts | 51° |
| 2026-05-07 15:56 | 39.84519 | 3.36697 | 17813 ft | 389 kts | 51° |
| 2026-05-07 15:57 | 39.86299 | 3.39380 | 18348 ft | 394 kts | 51° |
| 2026-05-07 15:57 | 39.88101 | 3.42098 | 18831 ft | 398 kts | 51° |
| 2026-05-07 15:57 | 39.89919 | 3.44839 | 19323 ft | 402 kts | 51° |
| 2026-05-07 15:57 | 39.91756 | 3.47608 | 19813 ft | 406 kts | 51° |
| 2026-05-07 15:58 | 39.93615 | 3.50408 | 20308 ft | 410 kts | 51° |
| 2026-05-07 15:58 | 39.95488 | 3.53230 | 20802 ft | 414 kts | 51° |
| 2026-05-07 15:58 | 39.97378 | 3.56085 | 21290 ft | 418 kts | 51° |
| 2026-05-07 15:58 | 39.99290 | 3.58971 | 21754 ft | 423 kts | 51° |
| 2026-05-07 15:59 | 40.01220 | 3.61892 | 22205 ft | 427 kts | 51° |
| 2026-05-07 15:59 | 40.03168 | 3.64843 | 22642 ft | 432 kts | 51° |
| 2026-05-07 15:59 | 40.05138 | 3.67832 | 23086 ft | 436 kts | 51° |
| 2026-05-07 15:59 | 40.07119 | 3.70843 | 23511 ft | 440 kts | 51° |
| 2026-05-07 16:00 | 40.09124 | 3.73888 | 23869 ft | 444 kts | 51° |
| 2026-05-07 16:00 | 40.11142 | 3.76956 | 24219 ft | 447 kts | 51° |
| 2026-05-07 16:00 | 40.13178 | 3.80053 | 24560 ft | 451 kts | 51° |
| 2026-05-07 16:00 | 40.15230 | 3.83175 | 24869 ft | 455 kts | 51° |
| 2026-05-07 16:01 | 40.17301 | 3.86334 | 25180 ft | 459 kts | 51° |
| 2026-05-07 16:01 | 40.19353 | 3.89470 | 25510 ft | 462 kts | 51° |
| 2026-05-07 16:01 | 40.21447 | 3.92674 | 25853 ft | 464 kts | 51° |
| 2026-05-07 16:01 | 40.23547 | 3.95892 | 26184 ft | 467 kts | 51° |
| 2026-05-07 16:02 | 40.25666 | 3.99139 | 26503 ft | 470 kts | 51° |
| 2026-05-07 16:02 | 40.27794 | 4.02404 | 26814 ft | 473 kts | 51° |
| 2026-05-07 16:02 | 40.29936 | 4.05693 | 27124 ft | 476 kts | 51° |
| 2026-05-07 16:02 | 40.32091 | 4.09001 | 27435 ft | 479 kts | 51° |
| 2026-05-07 16:03 | 40.34258 | 4.12328 | 27732 ft | 482 kts | 51° |
| 2026-05-07 16:03 | 40.36440 | 4.15679 | 28027 ft | 484 kts | 51° |
| 2026-05-07 16:03 | 40.38632 | 4.19054 | 28311 ft | 487 kts | 51° |
| 2026-05-07 16:03 | 40.40836 | 4.22459 | 28548 ft | 491 kts | 51° |
| 2026-05-07 16:04 | 40.43051 | 4.25885 | 28841 ft | 493 kts | 51° |
| 2026-05-07 16:04 | 40.45285 | 4.29304 | 29121 ft | 496 kts | 48° |
| 2026-05-07 16:04 | 40.47812 | 4.32414 | 29369 ft | 499 kts | 38° |
| 2026-05-07 16:04 | 40.50674 | 4.34992 | 29624 ft | 500 kts | 28° |
| 2026-05-07 16:05 | 40.53810 | 4.36983 | 29856 ft | 501 kts | 19° |
| 2026-05-07 16:05 | 40.60445 | 4.39157 | 29961 ft | 483 kts | 7° |
| 2026-05-07 16:06 | 40.67028 | 4.40726 | 29961 ft | 480 kts | 7° |
| 2026-05-07 16:06 | 40.73592 | 4.42300 | 29961 ft | 479 kts | 7° |
| 2026-05-07 16:07 | 40.80151 | 4.43876 | 29958 ft | 479 kts | 7° |
| 2026-05-07 16:07 | 40.86710 | 4.45447 | 29962 ft | 479 kts | 7° |
| 2026-05-07 16:08 | 40.93267 | 4.47034 | 29960 ft | 479 kts | 7° |
| 2026-05-07 16:08 | 40.99815 | 4.48636 | 29948 ft | 478 kts | 7° |
| 2026-05-07 16:09 | 41.06362 | 4.50232 | 29968 ft | 478 kts | 7° |
| 2026-05-07 16:09 | 41.12876 | 4.51807 | 29949 ft | 479 kts | 7° |
| 2026-05-07 16:10 | 41.19442 | 4.53403 | 29944 ft | 480 kts | 7° |
| 2026-05-07 16:10 | 41.26008 | 4.55013 | 29963 ft | 480 kts | 7° |
| 2026-05-07 16:11 | 41.32593 | 4.56620 | 29953 ft | 481 kts | 7° |
| 2026-05-07 16:11 | 41.39177 | 4.58236 | 29948 ft | 481 kts | 7° |
| 2026-05-07 16:12 | 41.45746 | 4.59851 | 29975 ft | 480 kts | 7° |
| 2026-05-07 16:12 | 41.52315 | 4.61467 | 29980 ft | 480 kts | 6° |
| 2026-05-07 16:13 | 41.58882 | 4.63080 | 29967 ft | 480 kts | 6° |
| 2026-05-07 16:13 | 41.65454 | 4.64716 | 29964 ft | 480 kts | 6° |
| 2026-05-07 16:14 | 41.71885 | 4.67227 | 29968 ft | 488 kts | 22° |
| 2026-05-07 16:14 | 41.77547 | 4.72270 | 29957 ft | 493 kts | 42° |
| 2026-05-07 16:15 | 41.82452 | 4.78711 | 29951 ft | 494 kts | 44° |
| 2026-05-07 16:15 | 41.87343 | 4.85172 | 29954 ft | 494 kts | 44° |
| 2026-05-07 16:16 | 41.92240 | 4.91656 | 29966 ft | 495 kts | 44° |
| 2026-05-07 16:16 | 41.97140 | 4.98161 | 29940 ft | 495 kts | 44° |
| 2026-05-07 16:17 | 42.02034 | 5.04674 | 29954 ft | 495 kts | 44° |
| 2026-05-07 16:17 | 42.06925 | 5.11195 | 29961 ft | 495 kts | 44° |
| 2026-05-07 16:18 | 42.11811 | 5.17736 | 29973 ft | 496 kts | 43° |
| 2026-05-07 16:18 | 42.16696 | 5.24295 | 29961 ft | 496 kts | 43° |
| 2026-05-07 16:19 | 42.21580 | 5.30869 | 29959 ft | 497 kts | 43° |
| 2026-05-07 16:19 | 42.26474 | 5.37456 | 29947 ft | 496 kts | 43° |
| 2026-05-07 16:20 | 42.31323 | 5.43996 | 29965 ft | 496 kts | 43° |
| 2026-05-07 16:20 | 42.36204 | 5.50611 | 29964 ft | 496 kts | 43° |
| 2026-05-07 16:21 | 42.41070 | 5.57227 | 29960 ft | 497 kts | 43° |
| 2026-05-07 16:21 | 42.45947 | 5.63865 | 29961 ft | 497 kts | 43° |
| 2026-05-07 16:22 | 42.50002 | 5.69376 | 29974 ft | 497 kts | 42° |
| 2026-05-07 16:22 | 42.54878 | 5.76021 | 29961 ft | 497 kts | 42° |
| 2026-05-07 16:23 | 42.59741 | 5.82690 | 29965 ft | 497 kts | 43° |
| 2026-05-07 16:23 | 42.64605 | 5.89369 | 29965 ft | 497 kts | 42° |
| 2026-05-07 16:24 | 42.69471 | 5.96054 | 29969 ft | 497 kts | 42° |
| 2026-05-07 16:24 | 42.74327 | 6.02741 | 29968 ft | 497 kts | 43° |
| 2026-05-07 16:25 | 42.79177 | 6.09444 | 29957 ft | 497 kts | 43° |
| 2026-05-07 16:25 | 42.84010 | 6.16153 | 29967 ft | 496 kts | 43° |
| 2026-05-07 16:26 | 42.89156 | 6.22360 | 29986 ft | 493 kts | 36° |
| 2026-05-07 16:26 | 42.94401 | 6.28355 | 29992 ft | 491 kts | 36° |
| 2026-05-07 16:27 | 42.99619 | 6.34369 | 29989 ft | 491 kts | 37° |
| 2026-05-07 16:27 | 43.04831 | 6.40383 | 29983 ft | 490 kts | 36° |
| 2026-05-07 16:28 | 43.10008 | 6.46348 | 29980 ft | 490 kts | 36° |
| 2026-05-07 16:28 | 43.15217 | 6.52357 | 29955 ft | 490 kts | 36° |
| 2026-05-07 16:29 | 43.20400 | 6.58406 | 29963 ft | 491 kts | 39° |
| 2026-05-07 16:29 | 43.24821 | 6.65591 | 29968 ft | 495 kts | 52° |
| 2026-05-07 16:30 | 43.28859 | 6.73250 | 29960 ft | 496 kts | 52° |
| 2026-05-07 16:30 | 43.32907 | 6.80917 | 29956 ft | 496 kts | 51° |
| 2026-05-07 16:31 | 43.36953 | 6.88604 | 29951 ft | 496 kts | 51° |
| 2026-05-07 16:31 | 43.40982 | 6.96281 | 29962 ft | 495 kts | 52° |
| 2026-05-07 16:32 | 43.45003 | 7.03961 | 29977 ft | 495 kts | 51° |
| 2026-05-07 16:32 | 43.49024 | 7.11663 | 29969 ft | 495 kts | 51° |
| 2026-05-07 16:33 | 43.53035 | 7.19372 | 29970 ft | 495 kts | 51° |
| 2026-05-07 16:33 | 43.57043 | 7.27090 | 29969 ft | 495 kts | 51° |
| 2026-05-07 16:34 | 43.61047 | 7.34827 | 30015 ft | 495 kts | 52° |
| 2026-05-07 16:34 | 43.65032 | 7.42541 | 30020 ft | 493 kts | 52° |
| 2026-05-07 16:35 | 43.69010 | 7.50252 | 30007 ft | 492 kts | 52° |
| 2026-05-07 16:35 | 43.72971 | 7.57953 | 30001 ft | 491 kts | 52° |
| 2026-05-07 16:36 | 43.76921 | 7.65665 | 29982 ft | 491 kts | 52° |
| 2026-05-07 16:36 | 43.80908 | 7.73337 | 30008 ft | 488 kts | 47° |
| 2026-05-07 16:37 | 43.85803 | 7.79672 | 30003 ft | 479 kts | 32° |
| 2026-05-07 16:37 | 43.91071 | 7.85306 | 29997 ft | 478 kts | 33° |
| 2026-05-07 16:38 | 43.96235 | 7.91151 | 30020 ft | 482 kts | 41° |
| 2026-05-07 16:38 | 44.01025 | 7.97627 | 30012 ft | 479 kts | 40° |
| 2026-05-07 16:39 | 44.05771 | 8.04022 | 30001 ft | 479 kts | 40° |
| 2026-05-07 16:39 | 44.10586 | 8.10507 | 29995 ft | 478 kts | 40° |
| 2026-05-07 16:40 | 44.15323 | 8.16921 | 30013 ft | 478 kts | 41° |
| 2026-05-07 16:40 | 44.20074 | 8.23382 | 30006 ft | 477 kts | 41° |
| 2026-05-07 16:41 | 44.24815 | 8.29829 | 29985 ft | 476 kts | 41° |
| 2026-05-07 16:41 | 44.29555 | 8.36285 | 29976 ft | 476 kts | 41° |
| 2026-05-07 16:42 | 44.34279 | 8.42751 | 29986 ft | 475 kts | 41° |
| 2026-05-07 16:42 | 44.38988 | 8.49230 | 29999 ft | 475 kts | 41° |
| 2026-05-07 16:43 | 44.43705 | 8.55688 | 30003 ft | 475 kts | 41° |
| 2026-05-07 16:43 | 44.48436 | 8.62142 | 29980 ft | 475 kts | 41° |
| 2026-05-07 16:44 | 44.53147 | 8.68620 | 29993 ft | 474 kts | 41° |
| 2026-05-07 16:44 | 44.57841 | 8.75111 | 29980 ft | 474 kts | 41° |
| 2026-05-07 16:45 | 44.62546 | 8.81612 | 29974 ft | 474 kts | 41° |
| 2026-05-07 16:45 | 44.67212 | 8.88067 | 30004 ft | 474 kts | 41° |
| 2026-05-07 16:46 | 44.71901 | 8.94586 | 29994 ft | 474 kts | 41° |
| 2026-05-07 16:46 | 44.76576 | 9.01102 | 29983 ft | 473 kts | 41° |
| 2026-05-07 16:47 | 44.81247 | 9.07627 | 29978 ft | 473 kts | 41° |
| 2026-05-07 16:47 | 44.85912 | 9.14149 | 29990 ft | 472 kts | 41° |
| 2026-05-07 16:48 | 44.90569 | 9.20671 | 29956 ft | 472 kts | 41° |
| 2026-05-07 16:48 | 44.95220 | 9.27210 | 29955 ft | 472 kts | 41° |
| 2026-05-07 16:49 | 44.99875 | 9.33775 | 29956 ft | 473 kts | 41° |
| 2026-05-07 16:49 | 45.04529 | 9.40334 | 29965 ft | 472 kts | 41° |
| 2026-05-07 16:50 | 45.09171 | 9.46909 | 29962 ft | 472 kts | 41° |
| 2026-05-07 16:50 | 45.13801 | 9.53486 | 29957 ft | 472 kts | 41° |
| 2026-05-07 16:51 | 45.18435 | 9.60078 | 29966 ft | 472 kts | 41° |
| 2026-05-07 16:51 | 45.23032 | 9.66628 | 29973 ft | 471 kts | 41° |
| 2026-05-07 16:52 | 45.27679 | 9.73270 | 29970 ft | 471 kts | 41° |
| 2026-05-07 16:52 | 45.32259 | 9.79836 | 29961 ft | 471 kts | 41° |
| 2026-05-07 16:53 | 45.36862 | 9.86458 | 29959 ft | 471 kts | 41° |
| 2026-05-07 16:53 | 45.41458 | 9.93084 | 29956 ft | 470 kts | 41° |
| 2026-05-07 16:54 | 45.46056 | 9.99713 | 29951 ft | 470 kts | 41° |
| 2026-05-07 16:54 | 45.50644 | 10.06347 | 29949 ft | 470 kts | 41° |
| 2026-05-07 16:55 | 45.55215 | 10.12984 | 29969 ft | 469 kts | 41° |
| 2026-05-07 16:55 | 45.59785 | 10.19623 | 29964 ft | 468 kts | 41° |
| 2026-05-07 16:56 | 45.64343 | 10.26278 | 29964 ft | 469 kts | 41° |
| 2026-05-07 16:56 | 45.71176 | 10.36286 | 29996 ft | 469 kts | 41° |
| 2026-05-07 16:57 | 45.75730 | 10.42966 | 29988 ft | 468 kts | 41° |
| 2026-05-07 16:57 | 45.80265 | 10.49645 | 30009 ft | 468 kts | 40° |
| 2026-05-07 16:58 | 45.84811 | 10.56352 | 30010 ft | 469 kts | 41° |
| 2026-05-07 16:58 | 45.89346 | 10.63047 | 30048 ft | 468 kts | 41° |
| 2026-05-07 16:59 | 45.94295 | 10.68884 | 30048 ft | 454 kts | 24° |
| 2026-05-07 16:59 | 45.99985 | 10.72457 | 30054 ft | 443 kts | 13° |
| 2026-05-07 17:00 | 46.05751 | 10.75439 | 30039 ft | 443 kts | 13° |
| 2026-05-07 17:00 | 46.11542 | 10.78475 | 30068 ft | 443 kts | 13° |
| 2026-05-07 17:01 | 46.17332 | 10.81522 | 30074 ft | 443 kts | 13° |
| 2026-05-07 17:01 | 46.23113 | 10.84555 | 30069 ft | 442 kts | 13° |
| 2026-05-07 17:02 | 46.28893 | 10.87592 | 30064 ft | 442 kts | 13° |
| 2026-05-07 17:02 | 46.34678 | 10.90642 | 30059 ft | 442 kts | 13° |
| 2026-05-07 17:03 | 46.40459 | 10.93689 | 30052 ft | 442 kts | 13° |
| 2026-05-07 17:03 | 46.46233 | 10.96755 | 30057 ft | 442 kts | 14° |
| 2026-05-07 17:04 | 46.51999 | 10.99823 | 30058 ft | 441 kts | 14° |
| 2026-05-07 17:04 | 46.57759 | 11.02893 | 30048 ft | 440 kts | 14° |
| 2026-05-07 17:05 | 46.63546 | 11.05747 | 30042 ft | 435 kts | 7° |
| 2026-05-07 17:05 | 46.69471 | 11.06493 | 30059 ft | 425 kts | 355° |
| 2026-05-07 17:06 | 46.75383 | 11.06489 | 30046 ft | 424 kts | 355° |
| 2026-05-07 17:06 | 46.78332 | 11.06498 | 29938 ft | 425 kts | 355° |
| 2026-05-07 17:06 | 46.81273 | 11.06508 | 29634 ft | 422 kts | 355° |
| 2026-05-07 17:07 | 46.84188 | 11.06347 | 29353 ft | 416 kts | 348° |
| 2026-05-07 17:07 | 46.87005 | 11.05552 | 29085 ft | 409 kts | 340° |
| 2026-05-07 17:07 | 46.89659 | 11.04151 | 28813 ft | 403 kts | 332° |
| 2026-05-07 17:07 | 46.92198 | 11.02439 | 28520 ft | 400 kts | 331° |
| 2026-05-07 17:08 | 46.94707 | 11.00745 | 28049 ft | 395 kts | 332° |
| 2026-05-07 17:08 | 46.97195 | 10.99080 | 27520 ft | 392 kts | 332° |
| 2026-05-07 17:08 | 46.99673 | 10.97448 | 26995 ft | 389 kts | 333° |
| 2026-05-07 17:08 | 47.02131 | 10.95850 | 26480 ft | 385 kts | 333° |
| 2026-05-07 17:09 | 47.04542 | 10.94289 | 25988 ft | 382 kts | 333° |
| 2026-05-07 17:09 | 47.06992 | 10.92700 | 25495 ft | 378 kts | 333° |
| 2026-05-07 17:09 | 47.09357 | 10.91160 | 25018 ft | 376 kts | 333° |
| 2026-05-07 17:09 | 47.11739 | 10.89607 | 24551 ft | 373 kts | 333° |
| 2026-05-07 17:10 | 47.14101 | 10.88063 | 24088 ft | 370 kts | 333° |
| 2026-05-07 17:10 | 47.16444 | 10.86527 | 23628 ft | 368 kts | 333° |
| 2026-05-07 17:10 | 47.18777 | 10.84993 | 23131 ft | 366 kts | 334° |
| 2026-05-07 17:10 | 47.21094 | 10.83469 | 22684 ft | 362 kts | 334° |
| 2026-05-07 17:11 | 47.23378 | 10.81965 | 22235 ft | 358 kts | 333° |
| 2026-05-07 17:11 | 47.25639 | 10.80472 | 21797 ft | 355 kts | 333° |
| 2026-05-07 17:11 | 47.27891 | 10.78986 | 21354 ft | 353 kts | 333° |
| 2026-05-07 17:11 | 47.30124 | 10.77513 | 20917 ft | 351 kts | 333° |
| 2026-05-07 17:12 | 47.32341 | 10.76047 | 20452 ft | 349 kts | 333° |
| 2026-05-07 17:12 | 47.34547 | 10.74581 | 19994 ft | 347 kts | 333° |
| 2026-05-07 17:12 | 47.36002 | 10.73613 | 19693 ft | 347 kts | 333° |
| 2026-05-07 17:12 | 47.38199 | 10.72141 | 19234 ft | 345 kts | 331° |
| 2026-05-07 17:13 | 47.40246 | 10.70332 | 18779 ft | 342 kts | 323° |
| 2026-05-07 17:13 | 47.42203 | 10.68345 | 18329 ft | 341 kts | 323° |
| 2026-05-07 17:13 | 47.44159 | 10.66356 | 17840 ft | 341 kts | 323° |
| 2026-05-07 17:13 | 47.46100 | 10.64379 | 17395 ft | 338 kts | 323° |
| 2026-05-07 17:14 | 47.48033 | 10.62407 | 16950 ft | 336 kts | 323° |
| 2026-05-07 17:14 | 47.49950 | 10.60445 | 16514 ft | 335 kts | 323° |
| 2026-05-07 17:14 | 47.51867 | 10.58481 | 16075 ft | 334 kts | 323° |
| 2026-05-07 17:14 | 47.53777 | 10.56524 | 15644 ft | 334 kts | 323° |
| 2026-05-07 17:15 | 47.55681 | 10.54572 | 15209 ft | 331 kts | 322° |
| 2026-05-07 17:15 | 47.57569 | 10.52623 | 14778 ft | 330 kts | 322° |
| 2026-05-07 17:15 | 47.59450 | 10.50680 | 14340 ft | 330 kts | 322° |
| 2026-05-07 17:15 | 47.61334 | 10.48734 | 13892 ft | 329 kts | 322° |
| 2026-05-07 17:16 | 47.63209 | 10.46794 | 13410 ft | 329 kts | 322° |
| 2026-05-07 17:16 | 47.65078 | 10.44859 | 12955 ft | 326 kts | 322° |
| 2026-05-07 17:16 | 47.66935 | 10.42933 | 12503 ft | 324 kts | 322° |
| 2026-05-07 17:16 | 47.68779 | 10.41017 | 12058 ft | 323 kts | 322° |
| 2026-05-07 17:17 | 47.70617 | 10.39110 | 11597 ft | 322 kts | 322° |
| 2026-05-07 17:17 | 47.72328 | 10.37026 | 11215 ft | 315 kts | 309° |
| 2026-05-07 17:17 | 47.73572 | 10.34430 | 10918 ft | 304 kts | 295° |
| 2026-05-07 17:17 | 47.74291 | 10.31567 | 10593 ft | 288 kts | 281° |
| 2026-05-07 17:18 | 47.74497 | 10.28688 | 10271 ft | 276 kts | 268° |
| 2026-05-07 17:18 | 47.74456 | 10.25860 | 9967 ft | 272 kts | 268° |
| 2026-05-07 17:18 | 47.74418 | 10.23055 | 9569 ft | 270 kts | 268° |
| 2026-05-07 17:18 | 47.74381 | 10.20301 | 9177 ft | 265 kts | 268° |
| 2026-05-07 17:19 | 47.74343 | 10.17580 | 8812 ft | 262 kts | 268° |
| 2026-05-07 17:19 | 47.74305 | 10.14877 | 8446 ft | 261 kts | 268° |
| 2026-05-07 17:19 | 47.74268 | 10.12195 | 8095 ft | 259 kts | 268° |
| 2026-05-07 17:19 | 47.74229 | 10.09521 | 7736 ft | 258 kts | 268° |
| 2026-05-07 17:20 | 47.74094 | 10.06882 | 7381 ft | 256 kts | 259° |
| 2026-05-07 17:20 | 47.73632 | 10.04337 | 7034 ft | 254 kts | 254° |
| 2026-05-07 17:20 | 47.73146 | 10.01832 | 6685 ft | 248 kts | 254° |
| 2026-05-07 17:20 | 47.72684 | 9.99436 | 6341 ft | 236 kts | 254° |
| 2026-05-07 17:21 | 47.72240 | 9.97118 | 6065 ft | 232 kts | 254° |
| 2026-05-07 17:21 | 47.71798 | 9.94831 | 5803 ft | 230 kts | 254° |
| 2026-05-07 17:21 | 47.71357 | 9.92551 | 5549 ft | 228 kts | 254° |
| 2026-05-07 17:21 | 47.70925 | 9.90308 | 5342 ft | 224 kts | 255° |
| 2026-05-07 17:22 | 47.70791 | 9.88048 | 5133 ft | 220 kts | 279° |
| 2026-05-07 17:22 | 47.71335 | 9.85961 | 4931 ft | 218 kts | 304° |
| 2026-05-07 17:22 | 47.72431 | 9.84448 | 4730 ft | 221 kts | 328° |
| 2026-05-07 17:22 | 47.73770 | 9.83324 | 4536 ft | 219 kts | 329° |
| 2026-05-07 17:23 | 47.75077 | 9.82230 | 4379 ft | 213 kts | 329° |
| 2026-05-07 17:23 | 47.76324 | 9.81085 | 4289 ft | 210 kts | 316° |
| 2026-05-07 17:23 | 47.77097 | 9.79297 | 4214 ft | 208 kts | 284° |
| 2026-05-07 17:23 | 47.77093 | 9.77174 | 4123 ft | 208 kts | 250° |
| 2026-05-07 17:24 | 47.76435 | 9.75262 | 4024 ft | 205 kts | 242° |
| 2026-05-07 17:24 | 47.75746 | 9.73471 | 4033 ft | 195 kts | 241° |
| 2026-05-07 17:24 | 47.75080 | 9.71742 | 4015 ft | 191 kts | 241° |
| 2026-05-07 17:24 | 47.74420 | 9.70027 | 3986 ft | 192 kts | 241° |
| 2026-05-07 17:25 | 47.73760 | 9.68313 | 3816 ft | 188 kts | 242° |
| 2026-05-07 17:25 | 47.73132 | 9.66683 | 3583 ft | 176 kts | 241° |
| 2026-05-07 17:25 | 47.72533 | 9.65129 | 3388 ft | 172 kts | 242° |
| 2026-05-07 17:25 | 47.71941 | 9.63592 | 3150 ft | 171 kts | 242° |
| 2026-05-07 17:26 | 47.71350 | 9.62061 | 2917 ft | 171 kts | 242° |
| 2026-05-07 17:26 | 47.70758 | 9.60525 | 2696 ft | 171 kts | 242° |
| 2026-05-07 17:26 | 47.70197 | 9.59077 | 2461 ft | 157 kts | 241° |
| 2026-05-07 17:26 | 47.69668 | 9.57708 | 2250 ft | 150 kts | 241° |
| 2026-05-07 17:27 | 47.69157 | 9.56387 | 2051 ft | 146 kts | 240° |
| 2026-05-07 17:27 | 47.68660 | 9.55093 | 1857 ft | 143 kts | 240° |
| 2026-05-07 17:27 | 47.68172 | 9.53822 | 1678 ft | 141 kts | 238° |
| 2026-05-07 17:27 | 47.67682 | 9.52574 | 1460 ft | 139 kts | 239° |
| 2026-05-07 17:28 | 47.67213 | 9.51350 | 1365 ft | 127 kts | 240° |
| 2026-05-07 17:28 | 47.66900 | 9.50548 | 1354 ft | 47 kts | 240° |
| 2026-05-07 17:28 | 47.66756 | 9.50179 | 1352 ft | 34 kts | 239° |
| 2026-05-07 17:28 | 47.66654 | 9.49917 | 1345 ft | 20 kts | 240° |
| 2026-05-07 17:29 | 47.66568 | 9.49837 | 1342 ft | 16 kts | 151° |
| 2026-05-07 17:29 | 47.66505 | 9.49975 | 1341 ft | 17 kts | 120° |
| 2026-05-07 17:29 | 47.66474 | 9.50140 | 1343 ft | 17 kts | 74° |
| 2026-05-07 17:29 | 47.66528 | 9.50294 | 1347 ft | 16 kts | 62° |
| 2026-05-07 17:30 | 47.66577 | 9.50421 | 1347 ft | 12 kts | 59° |
| 2026-05-07 17:30 | 47.66617 | 9.50522 | 1351 ft | 11 kts | 59° |
| 2026-05-07 17:30 | 47.66654 | 9.50612 | 1351 ft | 10 kts | 59° |
| 2026-05-07 17:30 | 47.66715 | 9.50708 | 1352 ft | 14 kts | 32° |
| 2026-05-07 17:31 | 47.66806 | 9.50798 | 1349 ft | 19 kts | 46° |
| 2026-05-07 17:31 | 47.66874 | 9.50960 | 1353 ft | 18 kts | 60° |
| 2026-05-07 17:31 | 47.66941 | 9.51134 | 1354 ft | 20 kts | 60° |
| 2026-05-07 17:31 | 47.67011 | 9.51313 | 1359 ft | 20 kts | 60° |
| 2026-05-07 17:32 | 47.67080 | 9.51491 | 1360 ft | 19 kts | 60° |
| 2026-05-07 17:32 | 47.67144 | 9.51658 | 1364 ft | 19 kts | 60° |
| 2026-05-07 17:32 | 47.67211 | 9.51829 | 1364 ft | 18 kts | 60° |
| 2026-05-07 17:32 | 47.67269 | 9.51980 | 1367 ft | 16 kts | 60° |
| 2026-05-07 17:33 | 47.67321 | 9.52115 | 1367 ft | 14 kts | 60° |
| 2026-05-07 17:33 | 47.67370 | 9.52240 | 1367 ft | 13 kts | 60° |
| 2026-05-07 17:33 | 47.67375 | 9.52306 | 1368 ft | 4 kts | 129° |
| 2026-05-07 17:33 | 47.67365 | 9.52316 | 1368 ft | 2 kts | 154° |
| 2026-05-07 17:34 | 47.67342 | 9.52317 | 1368 ft | 2 kts | 191° |
| 2026-05-07 17:34 | 47.67334 | 9.52314 | 1368 ft | 2 kts | 192° |